Time;durP1;ratioP1;P1;durP2;ratioP2;P2;SDS_P1;SDS_P2;PMS_P1;PMS_P2;Temp;Humidity;BMP_temperature;BMP_pressure;BME280_temperature;BME280_humidity;BME280_pressure;Samples;Min_cycle;Max_cycle;Signal;HPM_P1;HPM_P2
2020/12/29 00:01:39;;;;;;;23.95;13.07;;;;;;;;;;4992727;28;20065;-78
2020/12/29 00:04:06;;;;;;;23.90;12.25;;;;;;;;;;4991511;28;20050;-78
2020/12/29 00:06:32;;;;;;;22.15;11.65;;;;;;;;;;4990971;28;20046;-78
2020/12/29 00:08:58;;;;;;;21.35;10.43;;;;;;;;;;4994596;28;20049;-78
2020/12/29 00:11:25;;;;;;;22.40;11.32;;;;;;;;;;4996523;28;20057;-78
2020/12/29 00:13:52;;;;;;;20.95;10.88;;;;;;;;;;4995124;28;20046;-78
2020/12/29 00:16:21;;;;;;;21.98;10.82;;;;;;;;;;4996578;28;20053;-78
2020/12/29 00:18:48;;;;;;;19.50;9.75;;;;;;;;;;4962928;28;20058;-78
2020/12/29 00:21:18;;;;;;;18.83;10.30;;;;;;;;;;4994708;28;20070;-79
2020/12/29 00:23:45;;;;;;;19.58;8.88;;;;;;;;;;4995580;28;20160;-78
2020/12/29 00:26:12;;;;;;;17.48;9.52;;;;;;;;;;4995735;28;20043;-79
2020/12/29 00:28:38;;;;;;;18.33;10.05;;;;;;;;;;4995347;28;20383;-78
2020/12/29 00:31:04;;;;;;;17.55;8.90;;;;;;;;;;4995344;28;20042;-78
2020/12/29 00:33:31;;;;;;;18.98;9.05;;;;;;;;;;4996025;28;20502;-78
2020/12/29 00:35:57;;;;;;;16.95;8.45;;;;;;;;;;4996535;28;20053;-78
2020/12/29 00:38:24;;;;;;;17.55;9.40;;;;;;;;;;4989735;28;20502;-76
2020/12/29 00:40:50;;;;;;;20.52;9.68;;;;;;;;;;5005177;28;20052;-77
2020/12/29 00:43:16;;;;;;;18.27;9.70;;;;;;;;;;4978153;28;20113;-77
2020/12/29 00:45:42;;;;;;;19.05;9.25;;;;;;;;;;4946632;28;20049;-78
2020/12/29 00:48:09;;;;;;;17.50;9.43;;;;;;;;;;5010159;28;20069;-78
2020/12/29 00:50:36;;;;;;;19.15;9.90;;;;;;;;;;5003466;28;20038;-78
2020/12/29 00:53:03;;;;;;;21.70;10.10;;;;;;;;;;4995371;28;20041;-78
2020/12/29 00:55:29;;;;;;;21.13;9.98;;;;;;;;;;4981399;28;20486;-77
2020/12/29 00:57:56;;;;;;;16.17;9.25;;;;;;;;;;4981522;28;20662;-78
2020/12/29 01:00:22;;;;;;;17.77;9.13;;;;;;;;;;4996998;28;20646;-78
2020/12/29 01:02:48;;;;;;;19.73;10.00;;;;;;;;;;5013647;28;20057;-78
2020/12/29 01:05:16;;;;;;;20.33;10.00;;;;;;;;;;5013979;28;20042;-77
2020/12/29 01:07:42;;;;;;;19.98;9.93;;;;;;;;;;5034578;23;20126;-76
2020/12/29 01:10:08;;;;;;;17.77;9.27;;;;;;;;;;5014136;28;20042;-77
2020/12/29 01:12:35;;;;;;;19.02;9.75;;;;;;;;;;5013949;28;20026;-77
2020/12/29 01:15:01;;;;;;;20.85;9.93;;;;;;;;;;4995531;28;20074;-76
2020/12/29 01:17:27;;;;;;;19.05;10.07;;;;;;;;;;5012138;28;20042;-78
2020/12/29 01:19:53;;;;;;;22.80;10.45;;;;;;;;;;4994357;28;20045;-77
2020/12/29 01:22:19;;;;;;;21.67;10.60;;;;;;;;;;5012575;28;20046;-77
2020/12/29 01:24:46;;;;;;;18.70;9.82;;;;;;;;;;5011597;28;20484;-77
2020/12/29 01:27:12;;;;;;;20.38;10.20;;;;;;;;;;5012403;28;20046;-78
2020/12/29 01:29:38;;;;;;;18.38;9.65;;;;;;;;;;5012261;28;20038;-77
2020/12/29 01:32:04;;;;;;;19.52;9.70;;;;;;;;;;4978473;28;20060;-77
2020/12/29 01:34:30;;;;;;;19.13;9.07;;;;;;;;;;5011611;28;20357;-78
2020/12/29 01:36:56;;;;;;;18.05;9.48;;;;;;;;;;5002826;28;20131;-77
2020/12/29 01:39:27;;;;;;;18.17;9.52;;;;;;;;;;5012409;28;20077;-77
2020/12/29 01:41:53;;;;;;;22.23;9.63;;;;;;;;;;5012054;28;20676;-77
2020/12/29 01:44:20;;;;;;;17.45;8.50;;;;;;;;;;4994740;28;20478;-77
2020/12/29 01:46:48;;;;;;;19.10;9.05;;;;;;;;;;5009464;28;20056;-77
2020/12/29 01:49:15;;;;;;;15.85;8.93;;;;;;;;;;5011445;28;20034;-77
2020/12/29 01:51:42;;;;;;;18.52;9.15;;;;;;;;;;5011417;28;20034;-76
2020/12/29 01:54:08;;;;;;;16.50;9.02;;;;;;;;;;5011406;28;20057;-77
2020/12/29 01:56:40;;;;;;;18.23;9.25;;;;;;;;;;5011193;28;20141;-77
2020/12/29 01:59:11;;;;;;;19.23;9.52;;;;;;;;;;5010806;28;20046;-77
2020/12/29 02:01:38;;;;;;;21.17;10.93;;;;;;;;;;5011617;28;20436;-75
2020/12/29 02:04:09;;;;;;;21.90;10.20;;;;;;;;;;5011244;28;20101;-77
2020/12/29 02:06:37;;;;;;;21.48;10.48;;;;;;;;;;5012106;28;20054;-77
2020/12/29 02:09:04;;;;;;;21.85;10.90;;;;;;;;;;5012814;28;20042;-78
2020/12/29 02:11:31;;;;;;;28.10;13.00;;;;;;;;;;5013659;28;20477;-76
2020/12/29 02:13:57;;;;;;;25.63;12.20;;;;;;;;;;5013150;28;20069;-77
2020/12/29 02:16:24;;;;;;;24.85;12.60;;;;;;;;;;5012403;28;20166;-76
2020/12/29 02:18:50;;;;;;;27.45;12.25;;;;;;;;;;5011299;28;20038;-77
2020/12/29 02:21:17;;;;;;;26.75;12.05;;;;;;;;;;5011933;28;20077;-77
2020/12/29 02:23:43;;;;;;;27.88;11.30;;;;;;;;;;5010585;28;20044;-77
2020/12/29 02:26:27;;;;;;;23.88;11.68;;;;;;;;;;5011191;28;20093;-77
2020/12/29 02:29:05;;;;;;;22.67;10.98;;;;;;;;;;5011674;28;20050;-76
2020/12/29 02:31:32;;;;;;;24.45;11.10;;;;;;;;;;4993452;28;20046;-78
2020/12/29 02:33:58;;;;;;;23.23;11.82;;;;;;;;;;4993565;28;20038;-76
2020/12/29 02:36:24;;;;;;;23.33;10.68;;;;;;;;;;5010889;28;20050;-76
2020/12/29 02:38:51;;;;;;;23.30;11.60;;;;;;;;;;5010601;28;20049;-77
2020/12/29 02:41:17;;;;;;;23.70;11.48;;;;;;;;;;5011253;28;20053;-76
2020/12/29 02:43:45;;;;;;;24.75;12.88;;;;;;;;;;5011271;28;20049;-77
2020/12/29 02:46:14;;;;;;;22.42;11.15;;;;;;;;;;5011739;28;20054;-75
2020/12/29 02:48:41;;;;;;;21.98;10.50;;;;;;;;;;5014491;28;20046;-75
2020/12/29 02:51:08;;;;;;;20.48;9.63;;;;;;;;;;5013478;28;20092;-75
2020/12/29 02:53:34;;;;;;;19.00;10.13;;;;;;;;;;5011781;28;20046;-76
2020/12/29 02:56:00;;;;;;;22.65;10.50;;;;;;;;;;4993907;28;20046;-76
2020/12/29 02:58:27;;;;;;;23.08;10.88;;;;;;;;;;5010649;28;20045;-76
2020/12/29 03:00:52;;;;;;;19.92;9.68;;;;;;;;;;5010425;28;20370;-77
2020/12/29 03:03:18;;;;;;;22.02;10.50;;;;;;;;;;5010462;28;20442;-77
2020/12/29 03:05:44;;;;;;;21.55;10.82;;;;;;;;;;4991662;28;20065;-76
2020/12/29 03:08:11;;;;;;;22.13;10.00;;;;;;;;;;5010217;28;20705;-78
2020/12/29 03:10:37;;;;;;;21.50;9.75;;;;;;;;;;5014237;28;20046;-78
2020/12/29 03:13:04;;;;;;;20.60;9.55;;;;;;;;;;5012051;28;20241;-77
2020/12/29 03:15:29;;;;;;;19.23;9.70;;;;;;;;;;5012083;28;20446;-77
2020/12/29 03:17:56;;;;;;;18.77;9.48;;;;;;;;;;4994923;28;20069;-77
2020/12/29 03:20:22;;;;;;;20.67;9.35;;;;;;;;;;5024506;28;20042;-76
2020/12/29 03:22:48;;;;;;;18.65;9.38;;;;;;;;;;5007191;28;20053;-77
2020/12/29 03:25:15;;;;;;;17.65;8.98;;;;;;;;;;5024958;28;20073;-75
2020/12/29 03:27:41;;;;;;;21.27;9.85;;;;;;;;;;5025178;28;20045;-76
2020/12/29 03:30:07;;;;;;;18.65;9.57;;;;;;;;;;5024682;28;20088;-76
2020/12/29 03:32:33;;;;;;;18.60;9.18;;;;;;;;;;5025321;28;20064;-76
2020/12/29 03:34:59;;;;;;;18.83;9.48;;;;;;;;;;5012162;28;20038;-76
2020/12/29 03:37:25;;;;;;;18.10;9.55;;;;;;;;;;4979644;28;20048;-78
2020/12/29 03:39:52;;;;;;;19.00;9.45;;;;;;;;;;4960540;28;20050;-76
2020/12/29 03:42:18;;;;;;;18.90;8.85;;;;;;;;;;4979392;28;20044;-76
2020/12/29 03:44:44;;;;;;;16.77;9.10;;;;;;;;;;5011360;28;20109;-76
2020/12/29 03:47:10;;;;;;;18.98;9.38;;;;;;;;;;5011212;28;20068;-77
2020/12/29 03:49:37;;;;;;;22.13;10.15;;;;;;;;;;4996448;28;20640;-76
2020/12/29 03:52:03;;;;;;;21.30;9.70;;;;;;;;;;4996303;28;20122;-76
2020/12/29 03:54:29;;;;;;;19.27;9.85;;;;;;;;;;5000929;28;20056;-76
2020/12/29 03:56:55;;;;;;;16.85;8.23;;;;;;;;;;5013527;28;20050;-77
2020/12/29 03:59:21;;;;;;;17.83;9.50;;;;;;;;;;5011820;28;20053;-77
2020/12/29 04:01:47;;;;;;;21.45;9.63;;;;;;;;;;4994967;28;20103;-77
2020/12/29 04:04:14;;;;;;;21.65;10.35;;;;;;;;;;5012055;28;20046;-77
2020/12/29 04:06:40;;;;;;;19.10;9.65;;;;;;;;;;4977875;28;20050;-77
2020/12/29 04:09:06;;;;;;;19.00;9.45;;;;;;;;;;5010851;28;20116;-77
2020/12/29 04:11:38;;;;;;;20.67;9.48;;;;;;;;;;5010695;28;20494;-75
2020/12/29 04:14:05;;;;;;;20.88;9.88;;;;;;;;;;5010907;28;20501;-79
2020/12/29 04:16:32;;;;;;;16.33;8.43;;;;;;;;;;5009974;28;20548;-78
2020/12/29 04:18:58;;;;;;;20.45;9.75;;;;;;;;;;4992492;28;20046;-76
2020/12/29 04:21:24;;;;;;;19.75;8.88;;;;;;;;;;5010402;28;20144;-78
2020/12/29 04:23:51;;;;;;;18.52;9.10;;;;;;;;;;4976588;28;20437;-78
2020/12/29 04:26:18;;;;;;;18.92;9.40;;;;;;;;;;5009635;28;20050;-78
2020/12/29 04:28:45;;;;;;;18.48;9.48;;;;;;;;;;5008900;28;20057;-77
2020/12/29 04:31:12;;;;;;;20.80;10.20;;;;;;;;;;5009402;28;20486;-77
2020/12/29 04:33:38;;;;;;;21.23;9.73;;;;;;;;;;5008788;28;20049;-77
2020/12/29 04:36:04;;;;;;;21.17;9.40;;;;;;;;;;5010251;28;20437;-77
2020/12/29 04:38:31;;;;;;;22.50;9.65;;;;;;;;;;5008721;28;20034;-76
2020/12/29 04:40:57;;;;;;;18.10;9.02;;;;;;;;;;5009971;28;20056;-77
2020/12/29 04:43:24;;;;;;;17.30;8.80;;;;;;;;;;5009023;28;20057;-78
2020/12/29 04:45:50;;;;;;;16.33;8.20;;;;;;;;;;5009489;28;20046;-76
2020/12/29 04:48:16;;;;;;;18.13;8.55;;;;;;;;;;5008985;28;20046;-77
2020/12/29 04:50:42;;;;;;;15.90;8.13;;;;;;;;;;5010016;28;20049;-77
2020/12/29 04:53:13;;;;;;;13.82;7.53;;;;;;;;;;5010017;28;20085;-78
2020/12/29 04:55:42;;;;;;;14.48;7.45;;;;;;;;;;5012839;28;20042;-77
2020/12/29 04:58:08;;;;;;;14.93;7.10;;;;;;;;;;5012042;28;20056;-76
2020/12/29 05:00:35;;;;;;;14.70;6.88;;;;;;;;;;4996259;28;20052;-77
2020/12/29 05:03:02;;;;;;;12.80;6.85;;;;;;;;;;5013402;28;20077;-77
2020/12/29 05:05:28;;;;;;;13.25;7.38;;;;;;;;;;5011954;28;20050;-76
2020/12/29 05:07:54;;;;;;;12.27;5.95;;;;;;;;;;4995210;28;20072;-76
2020/12/29 05:10:21;;;;;;;13.10;6.30;;;;;;;;;;4994937;28;20121;-77
2020/12/29 05:12:48;;;;;;;11.95;6.47;;;;;;;;;;5012710;28;20061;-76
2020/12/29 05:15:14;;;;;;;12.13;6.18;;;;;;;;;;5012484;28;20137;-76
2020/12/29 05:17:40;;;;;;;14.00;6.65;;;;;;;;;;5013198;28;20237;-77
2020/12/29 05:20:06;;;;;;;10.55;5.57;;;;;;;;;;5014717;28;20041;-77
2020/12/29 05:22:34;;;;;;;9.70;5.85;;;;;;;;;;5023723;28;20029;-76
2020/12/29 05:25:00;;;;;;;11.73;6.15;;;;;;;;;;4997830;28;20088;-76
2020/12/29 05:27:27;;;;;;;12.75;5.85;;;;;;;;;;5016730;28;20042;-76
2020/12/29 05:29:53;;;;;;;8.98;5.82;;;;;;;;;;5015625;28;20045;-77
2020/12/29 05:32:21;;;;;;;11.05;6.05;;;;;;;;;;4997118;28;20038;-76
2020/12/29 05:34:50;;;;;;;12.98;6.60;;;;;;;;;;5013991;28;20391;-76
2020/12/29 05:37:17;;;;;;;10.43;5.97;;;;;;;;;;4992654;28;20485;-77
2020/12/29 05:39:46;;;;;;;12.57;6.05;;;;;;;;;;5012706;28;20046;-77
2020/12/29 05:42:21;;;;;;;14.45;6.13;;;;;;;;;;5013209;28;20041;-76
2020/12/29 05:44:51;;;;;;;11.55;5.53;;;;;;;;;;5012176;28;20081;-76
2020/12/29 05:47:21;;;;;;;11.65;5.43;;;;;;;;;;5012844;28;20093;-76
2020/12/29 05:49:47;;;;;;;9.68;5.80;;;;;;;;;;5012758;28;20386;-76
2020/12/29 05:52:14;;;;;;;10.38;5.38;;;;;;;;;;5012264;28;20038;-78
2020/12/29 05:54:42;;;;;;;8.95;5.50;;;;;;;;;;5012255;28;20517;-76
2020/12/29 05:57:11;;;;;;;10.45;6.07;;;;;;;;;;5012396;28;20565;-78
2020/12/29 05:59:38;;;;;;;12.20;5.75;;;;;;;;;;5011992;28;20135;-77
2020/12/29 06:02:07;;;;;;;8.95;5.07;;;;;;;;;;4994961;28;20045;-77
2020/12/29 06:04:34;;;;;;;11.13;5.53;;;;;;;;;;5011864;28;20042;-77
2020/12/29 06:07:03;;;;;;;11.38;5.78;;;;;;;;;;5011975;28;20042;-74
2020/12/29 06:09:29;;;;;;;11.73;5.65;;;;;;;;;;4994843;28;20439;-77
2020/12/29 06:11:58;;;;;;;10.85;5.60;;;;;;;;;;5011905;28;20046;-76
2020/12/29 06:14:25;;;;;;;9.50;5.35;;;;;;;;;;5012257;28;20057;-76
2020/12/29 06:16:52;;;;;;;9.23;5.40;;;;;;;;;;5012687;28;20355;-76
2020/12/29 06:19:28;;;;;;;8.82;5.05;;;;;;;;;;5012300;28;20473;-77
2020/12/29 06:21:57;;;;;;;7.20;4.70;;;;;;;;;;5011927;28;20388;-76
2020/12/29 06:24:23;;;;;;;7.00;4.38;;;;;;;;;;5012194;28;20050;-76
2020/12/29 06:26:52;;;;;;;7.80;4.65;;;;;;;;;;4994854;28;20038;-77
2020/12/29 06:29:21;;;;;;;6.82;4.22;;;;;;;;;;5012166;28;20136;-76
2020/12/29 06:31:49;;;;;;;7.70;4.47;;;;;;;;;;4995001;28;20533;-76
2020/12/29 06:34:17;;;;;;;6.28;4.22;;;;;;;;;;5011883;28;20046;-77
2020/12/29 06:36:44;;;;;;;9.60;4.47;;;;;;;;;;5012766;28;20034;-76
2020/12/29 06:39:13;;;;;;;7.72;4.50;;;;;;;;;;5012114;28;20293;-77
2020/12/29 06:41:41;;;;;;;7.45;4.47;;;;;;;;;;5013111;28;20042;-77
2020/12/29 06:44:07;;;;;;;8.25;4.60;;;;;;;;;;5012198;28;20060;-78
2020/12/29 06:46:33;;;;;;;7.95;4.68;;;;;;;;;;5012138;28;20042;-76
2020/12/29 06:49:19;;;;;;;7.50;4.63;;;;;;;;;;5012713;28;20606;-77
2020/12/29 06:51:46;;;;;;;7.63;4.47;;;;;;;;;;5015520;28;20073;-77
2020/12/29 06:54:20;;;;;;;7.20;4.45;;;;;;;;;;5012154;28;20121;-77
2020/12/29 06:56:59;;;;;;;7.38;4.55;;;;;;;;;;5010633;28;20058;-77
2020/12/29 06:59:37;;;;;;;8.27;4.90;;;;;;;;;;5012019;28;20038;-78
2020/12/29 07:02:03;;;;;;;8.93;4.50;;;;;;;;;;5012212;28;20044;-78
2020/12/29 07:04:32;;;;;;;7.07;4.05;;;;;;;;;;5010478;28;20046;-76
2020/12/29 07:09:58;;;;;;;7.10;4.03;;;;;;;;;;4949574;28;20236;-78
2020/12/29 07:12:34;;;;;;;6.55;4.15;;;;;;;;;;4950957;29;20063;-78
2020/12/29 07:15:13;;;;;;;8.10;3.70;;;;;;;;;;4951641;29;20051;-78
2020/12/29 07:17:58;;;;;;;8.90;4.20;;;;;;;;;;4949396;28;20094;-78
2020/12/29 07:20:33;;;;;;;6.85;3.88;;;;;;;;;;4952912;29;20149;-78
2020/12/29 07:23:09;;;;;;;6.70;3.80;;;;;;;;;;4920574;29;20066;-78
2020/12/29 07:25:46;;;;;;;6.90;4.03;;;;;;;;;;4938474;29;20051;-78
2020/12/29 07:28:29;;;;;;;5.07;3.15;;;;;;;;;;4924598;29;20043;-78
2020/12/29 07:31:18;;;;;;;5.13;3.70;;;;;;;;;;4938565;29;20039;-77
2020/12/29 07:33:47;;;;;;;5.15;3.25;;;;;;;;;;4933436;29;20047;-76
2020/12/29 07:36:16;;;;;;;5.28;3.08;;;;;;;;;;4956670;28;20049;-78
2020/12/29 07:38:45;;;;;;;4.63;2.92;;;;;;;;;;4969599;28;20035;-78
2020/12/29 07:41:12;;;;;;;4.13;2.53;;;;;;;;;;4971461;28;20050;-77
2020/12/29 07:43:38;;;;;;;5.43;3.00;;;;;;;;;;4937205;28;20455;-78
2020/12/29 07:46:04;;;;;;;4.53;2.67;;;;;;;;;;4954686;28;20051;-77
2020/12/29 07:48:30;;;;;;;4.28;2.70;;;;;;;;;;4969553;28;20050;-77
2020/12/29 07:51:01;;;;;;;4.18;2.50;;;;;;;;;;4966960;28;20027;-78
2020/12/29 07:53:28;;;;;;;4.53;2.70;;;;;;;;;;4957437;28;20070;-77
2020/12/29 07:55:56;;;;;;;4.55;2.70;;;;;;;;;;4959202;28;20508;-78
2020/12/29 07:58:24;;;;;;;5.38;2.83;;;;;;;;;;4942669;28;20105;-78
2020/12/29 08:00:50;;;;;;;4.53;2.55;;;;;;;;;;4958910;28;20047;-78
2020/12/29 08:03:20;;;;;;;4.35;2.20;;;;;;;;;;4961390;28;20047;-78
2020/12/29 08:05:46;;;;;;;4.00;2.38;;;;;;;;;;4925870;28;20122;-77
2020/12/29 08:08:14;;;;;;;3.42;2.20;;;;;;;;;;4961634;28;20062;-77
2020/12/29 08:10:44;;;;;;;5.78;2.22;;;;;;;;;;4948929;29;20062;-78
2020/12/29 08:13:11;;;;;;;4.40;1.90;;;;;;;;;;4950681;29;20495;-77
2020/12/29 08:15:38;;;;;;;3.50;1.83;;;;;;;;;;4933831;29;20071;-78
2020/12/29 08:18:19;;;;;;;2.80;1.85;;;;;;;;;;4953255;29;20043;-78
2020/12/29 08:20:54;;;;;;;2.95;1.60;;;;;;;;;;4921245;29;20256;-78
2020/12/29 08:23:20;;;;;;;2.80;1.70;;;;;;;;;;4972076;28;20050;-77
2020/12/29 08:25:52;;;;;;;4.38;2.20;;;;;;;;;;4965617;28;20039;-77
2020/12/29 08:28:19;;;;;;;3.72;1.92;;;;;;;;;;4953887;28;20095;-76
2020/12/29 08:30:45;;;;;;;2.80;1.80;;;;;;;;;;4967159;28;20114;-77
2020/12/29 08:33:13;;;;;;;3.38;1.80;;;;;;;;;;4966664;28;20062;-78
2020/12/29 08:35:43;;;;;;;2.28;1.58;;;;;;;;;;4946387;28;20047;-76
2020/12/29 08:38:14;;;;;;;1.77;1.20;;;;;;;;;;4963652;28;20062;-79
2020/12/29 08:40:47;;;;;;;2.10;1.27;;;;;;;;;;4964409;28;20178;-79
2020/12/29 08:43:16;;;;;;;2.75;1.40;;;;;;;;;;4964566;29;20051;-79
2020/12/29 08:45:42;;;;;;;2.65;1.30;;;;;;;;;;4932726;29;20047;-79
2020/12/29 08:48:09;;;;;;;2.35;1.10;;;;;;;;;;4943733;29;20051;-79
2020/12/29 08:50:37;;;;;;;2.05;1.10;;;;;;;;;;4959431;29;20530;-78
2020/12/29 08:53:06;;;;;;;2.55;1.20;;;;;;;;;;4951668;29;20156;-79
2020/12/29 08:55:34;;;;;;;2.58;1.15;;;;;;;;;;4953923;28;20098;-78
2020/12/29 08:58:00;;;;;;;1.83;1.10;;;;;;;;;;4954553;29;20047;-78
2020/12/29 09:00:27;;;;;;;1.77;1.02;;;;;;;;;;4937831;29;20051;-78
2020/12/29 09:02:54;;;;;;;2.17;1.17;;;;;;;;;;4955232;29;20361;-79
2020/12/29 09:05:28;;;;;;;3.80;1.95;;;;;;;;;;4954708;29;20057;-78
2020/12/29 09:07:54;;;;;;;2.10;1.23;;;;;;;;;;4937023;29;20055;-79
2020/12/29 09:10:22;;;;;;;1.63;1.02;;;;;;;;;;4936057;29;20133;-77
2020/12/29 09:12:48;;;;;;;3.72;0.90;;;;;;;;;;4960738;28;20039;-78
2020/12/29 09:15:24;;;;;;;4.30;1.35;;;;;;;;;;4937940;29;20553;-79
2020/12/29 09:17:50;;;;;;;;;;;;;;;;;;4953237;29;20117;-78
2020/12/29 09:20:16;;;;;;;1.67;0.60;;;;;;;;;;4968166;28;19933;-78
2020/12/29 09:23:11;;;;;;;1.55;0.73;;;;;;;;;;4957064;29;20058;-78
2020/12/29 09:25:44;;;;;;;1.70;1.02;;;;;;;;;;4946283;29;20067;-78
2020/12/29 09:28:14;;;;;;;2.83;0.80;;;;;;;;;;4955202;29;20047;-79
2020/12/29 09:30:42;;;;;;;1.75;0.88;;;;;;;;;;4955643;29;20510;-79
2020/12/29 09:33:08;;;;;;;1.83;0.75;;;;;;;;;;4953546;29;20110;-78
2020/12/29 09:35:34;;;;;;;1.50;0.70;;;;;;;;;;4955255;28;20043;-78
2020/12/29 09:38:00;;;;;;;1.70;0.80;;;;;;;;;;4956089;28;20043;-78
2020/12/29 09:40:48;;;;;;;2.15;0.90;;;;;;;;;;4958688;28;20286;-78
2020/12/29 09:43:14;;;;;;;1.52;0.65;;;;;;;;;;4972812;28;20055;-78
2020/12/29 09:45:45;;;;;;;1.77;0.70;;;;;;;;;;4957092;28;20046;-79
2020/12/29 09:48:14;;;;;;;1.60;0.73;;;;;;;;;;4972337;28;20054;-79
2020/12/29 09:50:40;;;;;;;4.90;0.93;;;;;;;;;;4973032;28;20031;-78
2020/12/29 09:53:07;;;;;;;2.05;0.88;;;;;;;;;;4956142;28;20050;-78
2020/12/29 09:55:33;;;;;;;2.38;1.10;;;;;;;;;;4955419;28;20463;-79
2020/12/29 09:57:59;;;;;;;2.05;1.08;;;;;;;;;;4973087;28;20131;-78
2020/12/29 10:00:25;;;;;;;1.67;1.00;;;;;;;;;;4972449;28;20046;-79
2020/12/29 10:02:51;;;;;;;1.83;0.90;;;;;;;;;;4974691;28;20066;-80
2020/12/29 10:05:17;;;;;;;2.13;0.95;;;;;;;;;;4973126;28;20458;-79
2020/12/29 10:07:44;;;;;;;1.83;0.70;;;;;;;;;;4939701;28;20154;-78
2020/12/29 10:10:10;;;;;;;1.42;0.80;;;;;;;;;;4972655;28;20050;-79
2020/12/29 10:12:36;;;;;;;1.20;0.70;;;;;;;;;;4956252;28;20049;-79
2020/12/29 10:15:02;;;;;;;2.65;0.90;;;;;;;;;;4956007;28;20039;-78
2020/12/29 10:17:30;;;;;;;1.83;0.70;;;;;;;;;;4974531;28;20164;-77
2020/12/29 10:19:56;;;;;;;1.35;0.82;;;;;;;;;;4976118;28;20086;-78
2020/12/29 10:22:23;;;;;;;1.52;0.60;;;;;;;;;;4974759;28;20443;-78
2020/12/29 10:24:49;;;;;;;1.25;0.70;;;;;;;;;;4974191;28;20042;-78
2020/12/29 10:27:15;;;;;;;1.55;0.55;;;;;;;;;;4974533;28;20047;-78
2020/12/29 10:29:41;;;;;;;3.33;0.68;;;;;;;;;;4975095;28;20039;-79
2020/12/29 10:32:07;;;;;;;2.22;0.80;;;;;;;;;;4974312;28;20073;-79
2020/12/29 10:34:33;;;;;;;0.88;0.55;;;;;;;;;;4962630;28;20060;-78
2020/12/29 10:37:00;;;;;;;3.47;0.70;;;;;;;;;;4961508;28;20043;-77
2020/12/29 10:39:28;;;;;;;0.75;0.32;;;;;;;;;;4974929;28;20043;-78
2020/12/29 10:41:54;;;;;;;2.03;0.40;;;;;;;;;;4964460;28;20047;-79
2020/12/29 10:44:20;;;;;;;2.20;0.52;;;;;;;;;;4954154;28;20541;-79
2020/12/29 10:46:47;;;;;;;1.45;0.55;;;;;;;;;;4971655;28;20125;-79
2020/12/29 10:49:14;;;;;;;0.85;0.43;;;;;;;;;;4952069;28;20051;-77
2020/12/29 10:51:40;;;;;;;1.20;0.50;;;;;;;;;;4949866;28;20612;-78
2020/12/29 10:54:06;;;;;;;0.77;0.50;;;;;;;;;;4962798;28;20134;-78
2020/12/29 10:56:32;;;;;;;0.63;0.30;;;;;;;;;;4963380;28;20042;-79
2020/12/29 10:58:58;;;;;;;2.30;0.40;;;;;;;;;;4966587;28;20064;-77
2020/12/29 11:01:25;;;;;;;0.93;0.40;;;;;;;;;;4963639;28;20134;-79
2020/12/29 11:03:51;;;;;;;0.80;0.40;;;;;;;;;;4961673;28;20605;-78
2020/12/29 11:06:20;;;;;;;0.50;0.30;;;;;;;;;;4965693;28;20545;-78
2020/12/29 11:08:47;;;;;;;1.38;0.40;;;;;;;;;;4961481;28;20113;-78
2020/12/29 11:11:14;;;;;;;0.80;0.57;;;;;;;;;;4929518;28;20146;-77
2020/12/29 11:13:41;;;;;;;0.70;0.52;;;;;;;;;;4955915;28;20038;-78
2020/12/29 11:16:14;;;;;;;0.73;0.30;;;;;;;;;;4955557;28;20070;-78
2020/12/29 11:18:41;;;;;;;1.05;0.50;;;;;;;;;;4975289;28;20518;-78
2020/12/29 11:21:08;;;;;;;0.43;0.30;;;;;;;;;;4959637;28;20496;-78
2020/12/29 11:23:34;;;;;;;1.10;0.35;;;;;;;;;;4975287;28;20070;-78
2020/12/29 11:26:00;;;;;;;2.35;0.38;;;;;;;;;;4953742;28;20503;-78
2020/12/29 11:28:27;;;;;;;0.65;0.30;;;;;;;;;;4971698;28;20042;-78
2020/12/29 11:30:54;;;;;;;1.08;0.32;;;;;;;;;;4971736;28;20085;-77
2020/12/29 11:33:20;;;;;;;1.38;0.47;;;;;;;;;;4948233;28;20047;-75
2020/12/29 11:35:47;;;;;;;0.82;0.40;;;;;;;;;;4919622;28;20061;-78
2020/12/29 11:38:14;;;;;;;0.30;0.20;;;;;;;;;;4944681;28;20062;-78
2020/12/29 11:40:40;;;;;;;0.95;0.28;;;;;;;;;;4960076;28;20047;-79
2020/12/29 11:43:07;;;;;;;0.57;0.30;;;;;;;;;;4940781;28;20117;-78
2020/12/29 11:45:33;;;;;;;0.43;0.20;;;;;;;;;;4960547;28;20043;-77
2020/12/29 11:47:59;;;;;;;1.17;0.32;;;;;;;;;;4960780;28;20404;-77
2020/12/29 11:50:26;;;;;;;1.90;0.45;;;;;;;;;;4940084;28;20082;-78
2020/12/29 11:52:52;;;;;;;0.65;0.40;;;;;;;;;;4935911;29;20047;-77
2020/12/29 11:55:18;;;;;;;0.50;0.30;;;;;;;;;;4952146;29;20526;-78
2020/12/29 11:57:43;;;;;;;0.57;0.40;;;;;;;;;;4931921;29;20090;-78
2020/12/29 12:00:10;;;;;;;1.02;0.40;;;;;;;;;;4952755;29;20153;-77
2020/12/29 12:02:36;;;;;;;0.70;0.30;;;;;;;;;;4934044;28;20051;-78
2020/12/29 12:05:02;;;;;;;1.40;0.60;;;;;;;;;;4952284;29;20066;-78
2020/12/29 12:07:28;;;;;;;0.77;0.38;;;;;;;;;;4950447;29;20047;-78
2020/12/29 12:09:55;;;;;;;1.20;0.30;;;;;;;;;;4940696;29;20598;-78
2020/12/29 12:12:22;;;;;;;0.80;0.30;;;;;;;;;;4966753;28;20403;-79
2020/12/29 12:14:50;;;;;;;0.60;0.25;;;;;;;;;;4935155;29;20051;-78
2020/12/29 12:17:17;;;;;;;0.88;0.25;;;;;;;;;;4951310;28;20063;-79
2020/12/29 12:19:44;;;;;;;2.65;0.40;;;;;;;;;;4934899;29;20102;-78
2020/12/29 12:22:11;;;;;;;1.00;0.50;;;;;;;;;;4934566;29;20055;-78
2020/12/29 12:24:40;;;;;;;0.95;0.20;;;;;;;;;;4965604;28;20066;-78
2020/12/29 12:27:09;;;;;;;0.60;0.35;;;;;;;;;;4934364;29;20439;-78
2020/12/29 12:29:35;;;;;;;0.57;0.22;;;;;;;;;;4951685;29;20455;-79
2020/12/29 12:32:01;;;;;;;0.35;0.30;;;;;;;;;;4931222;29;20054;-79
2020/12/29 12:34:28;;;;;;;0.32;0.22;;;;;;;;;;4946868;29;20051;-78
2020/12/29 12:36:54;;;;;;;0.85;0.40;;;;;;;;;;4956173;28;20050;-78
2020/12/29 12:39:20;;;;;;;0.75;0.30;;;;;;;;;;4971464;28;20047;-78
2020/12/29 12:41:47;;;;;;;1.13;0.20;;;;;;;;;;4972883;28;20121;-78
2020/12/29 12:44:13;;;;;;;0.40;0.30;;;;;;;;;;4955001;28;20047;-80
2020/12/29 12:46:41;;;;;;;1.10;0.35;;;;;;;;;;4972473;28;20278;-78
2020/12/29 12:49:07;;;;;;;0.50;0.25;;;;;;;;;;4954379;28;20101;-79
2020/12/29 12:51:50;;;;;;;0.47;0.30;;;;;;;;;;4969780;28;20046;-78
2020/12/29 12:54:16;;;;;;;0.70;0.40;;;;;;;;;;4955762;28;20043;-80
2020/12/29 12:56:42;;;;;;;1.05;0.50;;;;;;;;;;4959296;28;20038;-79
2020/12/29 12:59:09;;;;;;;0.65;0.50;;;;;;;;;;4955829;28;20047;-79
2020/12/29 13:01:35;;;;;;;1.73;0.50;;;;;;;;;;4955674;28;20298;-78
2020/12/29 13:04:02;;;;;;;0.80;0.35;;;;;;;;;;4972581;28;20059;-79
2020/12/29 13:06:28;;;;;;;0.77;0.40;;;;;;;;;;4954604;28;20062;-79
2020/12/29 13:08:54;;;;;;;0.73;0.40;;;;;;;;;;4977419;23;20047;-78
2020/12/29 13:11:21;;;;;;;1.15;0.47;;;;;;;;;;5007792;28;20046;-77
2020/12/29 13:13:47;;;;;;;0.75;0.40;;;;;;;;;;4995454;28;20097;-77
2020/12/29 13:16:17;;;;;;;0.65;0.40;;;;;;;;;;5005852;28;20111;-77
2020/12/29 13:18:43;;;;;;;1.13;0.40;;;;;;;;;;4961675;28;20038;-81
2020/12/29 13:21:12;;;;;;;1.25;0.40;;;;;;;;;;4982388;28;20069;-80
2020/12/29 13:23:57;;;;;;;0.80;0.60;;;;;;;;;;4980944;28;20042;-81
2020/12/29 13:26:23;;;;;;;0.65;0.40;;;;;;;;;;4996635;28;20141;-80
2020/12/29 13:28:50;;;;;;;0.70;0.50;;;;;;;;;;4986538;28;20057;-79
2020/12/29 13:31:19;;;;;;;2.53;0.60;;;;;;;;;;5002806;28;20038;-77
2020/12/29 13:33:45;;;;;;;2.17;0.60;;;;;;;;;;5003833;28;20070;-79
2020/12/29 13:36:12;;;;;;;1.67;0.77;;;;;;;;;;5005940;28;20097;-79
2020/12/29 13:38:38;;;;;;;1.02;0.60;;;;;;;;;;4972909;28;20051;-80
2020/12/29 13:41:05;;;;;;;0.82;0.50;;;;;;;;;;5008931;28;20039;-79
2020/12/29 13:43:31;;;;;;;0.88;0.50;;;;;;;;;;4986884;28;20048;-79
2020/12/29 13:45:58;;;;;;;0.57;0.50;;;;;;;;;;5002196;28;20549;-78
2020/12/29 13:48:25;;;;;;;0.85;0.43;;;;;;;;;;4990895;28;20049;-78
2020/12/29 13:50:52;;;;;;;2.15;0.65;;;;;;;;;;4998276;28;20042;-78
2020/12/29 13:53:21;;;;;;;4.40;0.52;;;;;;;;;;4996853;28;20039;-80
2020/12/29 13:55:47;;;;;;;1.23;0.52;;;;;;;;;;4996147;28;20047;-79
2020/12/29 13:58:14;;;;;;;0.93;0.52;;;;;;;;;;4984855;28;20105;-80
2020/12/29 14:00:41;;;;;;;0.90;0.50;;;;;;;;;;4996947;28;20042;-80
2020/12/29 14:03:07;;;;;;;1.15;0.60;;;;;;;;;;4996534;28;20050;-78
2020/12/29 14:05:34;;;;;;;1.20;0.65;;;;;;;;;;4996185;28;20046;-79
2020/12/29 14:08:00;;;;;;;0.90;0.60;;;;;;;;;;4983535;28;20046;-78
2020/12/29 14:10:27;;;;;;;0.82;0.55;;;;;;;;;;4995174;28;20537;-80
2020/12/29 14:12:55;;;;;;;1.27;0.73;;;;;;;;;;4996441;28;20039;-79
2020/12/29 14:15:21;;;;;;;1.42;0.70;;;;;;;;;;4995566;28;20064;-80
2020/12/29 14:17:48;;;;;;;2.40;0.80;;;;;;;;;;4988630;28;20042;-79
2020/12/29 14:20:14;;;;;;;1.30;0.80;;;;;;;;;;4982634;28;20371;-77
2020/12/29 14:22:40;;;;;;;1.73;0.90;;;;;;;;;;4999320;28;20438;-76
2020/12/29 14:25:06;;;;;;;1.20;0.82;;;;;;;;;;4994912;28;20053;-77
2020/12/29 14:27:36;;;;;;;1.45;0.70;;;;;;;;;;4996916;28;20045;-77
2020/12/29 14:30:03;;;;;;;1.15;0.70;;;;;;;;;;4999288;28;20038;-77
2020/12/29 14:32:29;;;;;;;1.27;0.70;;;;;;;;;;4983018;28;20034;-77
2020/12/29 14:35:18;;;;;;;1.23;0.70;;;;;;;;;;4998216;28;20038;-77
2020/12/29 14:37:44;;;;;;;1.70;0.70;;;;;;;;;;4992077;28;20038;-78
2020/12/29 14:40:10;;;;;;;1.45;0.68;;;;;;;;;;5002236;28;20050;-78
2020/12/29 14:42:36;;;;;;;1.75;1.10;;;;;;;;;;5004586;28;20046;-77